Time;durP1;ratioP1;P1;durP2;ratioP2;P2;SDS_P1;SDS_P2;PMS_P1;PMS_P2;Temp;Humidity;BMP_temperature;BMP_pressure;BME280_temperature;BME280_humidity;BME280_pressure;Samples;Min_cycle;Max_cycle;Signal;HPM_P1;HPM_P2
2023/04/12 00:01:56;;;;;;;15.60;9.60;;;;;;;;;;108174;1252;25252;-81
2023/04/12 00:04:27;;;;;;;16.60;10.80;;;;;;;;;;108334;1247;22542;-81
2023/04/12 00:06:54;;;;;;;15.10;9.80;;;;;;;;;;108346;1252;26360;-80
2023/04/12 00:09:21;;;;;;;19.90;11.00;;;;;;;;;;108330;1247;25493;-80
2023/04/12 00:11:47;;;;;;;18.20;10.30;;;;;;;;;;109394;1250;22645;-81
2023/04/12 00:14:13;;;;;;;14.60;9.90;;;;;;;;;;108563;1250;22559;-81
2023/04/12 00:16:40;;;;;;;14.10;10.50;;;;;;;;;;108141;1250;24227;-81
2023/04/12 00:19:07;;;;;;;15.70;11.00;;;;;;;;;;108170;1250;23330;-81
2023/04/12 00:21:34;;;;;;;14.70;10.10;;;;;;;;;;108091;1250;24344;-81
2023/04/12 00:24:00;;;;;;;19.70;9.70;;;;;;;;;;108065;1250;23273;-81
2023/04/12 00:26:27;;;;;;;12.30;9.20;;;;;;;;;;108118;1252;25470;-81
2023/04/12 00:28:53;;;;;;;14.30;10.10;;;;;;;;;;108085;1252;22565;-81
2023/04/12 00:31:19;;;;;;;14.10;10.30;;;;;;;;;;108111;1251;22544;-81
2023/04/12 00:33:46;;;;;;;19.70;9.50;;;;;;;;;;108049;1250;22686;-80
2023/04/12 00:36:12;;;;;;;14.60;10.60;;;;;;;;;;108145;1250;25391;-80
2023/04/12 00:38:38;;;;;;;17.20;9.00;;;;;;;;;;108102;1252;22527;-81
2023/04/12 00:41:05;;;;;;;16.40;10.40;;;;;;;;;;108150;1249;25602;-81
2023/04/12 00:43:31;;;;;;;14.60;9.40;;;;;;;;;;108085;1249;22521;-81
2023/04/12 00:45:58;;;;;;;15.60;10.20;;;;;;;;;;108138;1250;24179;-81
2023/04/12 00:48:25;;;;;;;15.10;9.70;;;;;;;;;;108082;1250;25385;-81
2023/04/12 00:50:54;;;;;;;16.20;9.70;;;;;;;;;;108045;1250;22602;-81
2023/04/12 00:53:21;;;;;;;14.10;8.60;;;;;;;;;;108094;1250;25425;-81
2023/04/12 00:55:48;;;;;;;15.40;9.50;;;;;;;;;;108044;1250;25359;-81
2023/04/12 00:58:15;;;;;;;13.80;8.50;;;;;;;;;;108041;1250;23559;-81
2023/04/12 01:00:48;;;;;;;14.70;9.80;;;;;;;;;;108095;1255;22584;-81
2023/04/12 01:03:21;;;;;;;15.50;9.80;;;;;;;;;;108106;1250;22550;-81
2023/04/12 01:05:56;;;;;;;14.70;10.30;;;;;;;;;;108075;1252;22528;-81
2023/04/12 01:08:30;;;;;;;14.20;9.90;;;;;;;;;;108067;1250;24241;-80
2023/04/12 01:10:56;;;;;;;16.20;9.90;;;;;;;;;;108087;1250;22547;-81
2023/04/12 01:13:39;;;;;;;15.60;10.40;;;;;;;;;;108141;1252;22534;-81
2023/04/12 01:16:07;;;;;;;15.30;10.30;;;;;;;;;;108110;1248;22707;-81
2023/04/12 01:18:39;;;;;;;16.10;9.80;;;;;;;;;;108056;1250;22522;-81
2023/04/12 01:21:07;;;;;;;15.30;8.70;;;;;;;;;;108090;1250;22564;-81
2023/04/12 01:23:52;;;;;;;15.10;9.80;;;;;;;;;;108121;1251;23231;-81
2023/04/12 01:26:31;;;;;;;17.20;11.40;;;;;;;;;;108137;1250;22734;-81
2023/04/12 01:28:57;;;;;;;18.20;11.10;;;;;;;;;;108131;1250;23273;-80
2023/04/12 01:31:24;;;;;;;14.30;9.30;;;;;;;;;;108336;1253;25346;-81
2023/04/12 01:33:51;;;;;;;18.40;12.00;;;;;;;;;;108102;1252;24189;-81
2023/04/12 01:36:18;;;;;;;20.70;11.80;;;;;;;;;;108086;1250;25385;-80
2023/04/12 01:38:45;;;;;;;15.90;9.60;;;;;;;;;;108029;1252;25225;-81
2023/04/12 01:41:11;;;;;;;11.50;8.50;;;;;;;;;;108075;1250;22617;-81
2023/04/12 01:43:41;;;;;;;13.10;9.20;;;;;;;;;;108124;1250;22619;-80
2023/04/12 01:46:08;;;;;;;18.30;10.00;;;;;;;;;;108129;1252;25505;-81
2023/04/12 01:48:35;;;;;;;15.90;9.80;;;;;;;;;;108147;1250;22572;-81
2023/04/12 01:51:05;;;;;;;15.80;10.00;;;;;;;;;;109410;1251;23303;-81
2023/04/12 01:53:34;;;;;;;12.40;9.50;;;;;;;;;;108109;1250;22536;-80
2023/04/12 01:56:00;;;;;;;;;;;;;;;;;;108115;1252;22514;-81
2023/04/12 01:58:27;;;;;;;11.40;8.60;;;;;;;;;;108011;1252;165909;-81
2023/04/12 02:00:53;;;;;;;14.40;9.30;;;;;;;;;;108146;1248;24240;-81
2023/04/12 02:03:22;;;;;;;10.60;8.60;;;;;;;;;;108138;1254;23215;-81
2023/04/12 02:05:49;;;;;;;13.70;9.90;;;;;;;;;;108361;1252;22525;-81
2023/04/12 02:08:16;;;;;;;12.00;8.70;;;;;;;;;;108139;1254;22576;-81
2023/04/12 02:10:42;;;;;;;10.70;8.50;;;;;;;;;;108303;1253;22538;-80
2023/04/12 02:13:08;;;;;;;12.40;9.40;;;;;;;;;;108309;1248;22521;-81
2023/04/12 02:15:36;;;;;;;10.60;8.10;;;;;;;;;;108323;1248;22552;-80
2023/04/12 02:18:02;;;;;;;14.40;8.20;;;;;;;;;;108124;1256;26605;-81
2023/04/12 02:20:29;;;;;;;13.80;8.50;;;;;;;;;;108287;1253;22522;-81
2023/04/12 02:22:55;;;;;;;14.00;9.50;;;;;;;;;;108290;1252;22529;-81
2023/04/12 02:25:22;;;;;;;14.40;10.10;;;;;;;;;;108106;1247;24189;-81
2023/04/12 02:27:48;;;;;;;14.00;9.60;;;;;;;;;;108277;1247;22523;-81
2023/04/12 02:30:15;;;;;;;16.20;9.80;;;;;;;;;;108167;1250;22542;-81
2023/04/12 02:32:44;;;;;;;13.30;9.20;;;;;;;;;;108129;1251;27477;-81
2023/04/12 02:35:18;;;;;;;16.40;9.90;;;;;;;;;;108125;1248;24316;-81
2023/04/12 02:37:45;;;;;;;11.80;8.60;;;;;;;;;;108111;1253;23282;-80
2023/04/12 02:40:13;;;;;;;16.70;8.70;;;;;;;;;;108140;1251;22518;-81
2023/04/12 02:42:39;;;;;;;14.00;9.40;;;;;;;;;;108219;1252;22583;-81
2023/04/12 02:45:05;;;;;;;15.90;8.40;;;;;;;;;;108153;1252;24218;-81
2023/04/12 02:47:32;;;;;;;14.00;9.40;;;;;;;;;;108059;1250;25344;-81
2023/04/12 02:49:58;;;;;;;11.40;7.70;;;;;;;;;;108043;1254;22517;-81
2023/04/12 02:52:25;;;;;;;11.50;8.20;;;;;;;;;;108083;1254;24168;-81
2023/04/12 02:54:51;;;;;;;11.30;7.00;;;;;;;;;;108048;1249;22541;-81
2023/04/12 02:57:20;;;;;;;13.00;8.40;;;;;;;;;;108089;1252;24248;-81
2023/04/12 02:59:47;;;;;;;12.00;7.70;;;;;;;;;;108052;1250;22870;-81
2023/04/12 03:02:14;;;;;;;13.00;7.20;;;;;;;;;;108176;1253;22519;-81
2023/04/12 03:04:40;;;;;;;9.40;7.20;;;;;;;;;;108139;1251;26496;-81
2023/04/12 03:07:07;;;;;;;10.20;7.20;;;;;;;;;;108142;1250;23209;-81
2023/04/12 03:09:33;;;;;;;10.90;6.20;;;;;;;;;;108072;1252;22577;-81
2023/04/12 03:12:00;;;;;;;11.90;6.60;;;;;;;;;;108141;1251;24117;-81
2023/04/12 03:14:26;;;;;;;9.60;6.30;;;;;;;;;;108111;1251;24216;-80
2023/04/12 03:16:53;;;;;;;9.50;6.20;;;;;;;;;;108080;1250;22930;-81
2023/04/12 03:19:19;;;;;;;11.40;6.50;;;;;;;;;;108081;1248;22570;-81
2023/04/12 03:21:45;;;;;;;10.50;6.30;;;;;;;;;;108142;1253;22519;-81
2023/04/12 03:24:12;;;;;;;9.30;6.20;;;;;;;;;;108161;1253;24219;-81
2023/04/12 03:26:40;;;;;;;9.70;5.80;;;;;;;;;;108126;1252;22536;-81
2023/04/12 03:29:07;;;;;;;15.60;7.50;;;;;;;;;;108125;1250;22627;-81
2023/04/12 03:31:34;;;;;;;10.70;6.10;;;;;;;;;;108063;1253;22567;-81
2023/04/12 03:34:00;;;;;;;10.00;6.30;;;;;;;;;;108112;1253;22547;-81
2023/04/12 03:36:28;;;;;;;9.60;5.70;;;;;;;;;;108120;1251;22555;-81
2023/04/12 03:38:54;;;;;;;9.80;5.90;;;;;;;;;;108061;1250;24204;-80
2023/04/12 03:41:21;;;;;;;9.60;6.30;;;;;;;;;;108077;1251;25323;-82
2023/04/12 03:43:48;;;;;;;9.00;5.50;;;;;;;;;;108170;1251;22525;-81
2023/04/12 03:46:14;;;;;;;7.60;5.10;;;;;;;;;;108093;1252;22534;-81
2023/04/12 03:48:41;;;;;;;8.00;5.30;;;;;;;;;;108107;1251;22552;-81
2023/04/12 03:51:10;;;;;;;8.30;5.30;;;;;;;;;;108124;1249;22531;-81
2023/04/12 03:53:37;;;;;;;9.70;5.90;;;;;;;;;;108105;1250;25379;-81
2023/04/12 03:56:04;;;;;;;8.60;5.20;;;;;;;;;;108107;1251;25501;-81
2023/04/12 03:58:32;;;;;;;6.90;4.90;;;;;;;;;;108667;1250;23752;-81
2023/04/12 04:01:01;;;;;;;7.30;5.40;;;;;;;;;;108658;1252;25284;-81
2023/04/12 04:03:28;;;;;;;6.90;5.20;;;;;;;;;;108025;1248;23258;-80
2023/04/12 04:05:54;;;;;;;6.90;5.20;;;;;;;;;;108412;1253;25382;-81
2023/04/12 04:08:21;;;;;;;8.40;4.90;;;;;;;;;;108070;1248;22649;-80
2023/04/12 04:10:47;;;;;;;7.60;4.90;;;;;;;;;;108028;1254;22544;-80
2023/04/12 04:13:13;;;;;;;5.40;4.20;;;;;;;;;;108246;1247;26232;-80
2023/04/12 04:15:40;;;;;;;6.70;4.30;;;;;;;;;;108272;1247;22615;-80
2023/04/12 04:18:06;;;;;;;7.90;4.30;;;;;;;;;;108285;1248;22535;-80
2023/04/12 04:20:32;;;;;;;6.20;4.30;;;;;;;;;;108294;1248;22586;-80
2023/04/12 04:22:59;;;;;;;9.10;5.70;;;;;;;;;;108319;1247;24273;-80
2023/04/12 04:25:32;;;;;;;13.30;8.60;;;;;;;;;;108275;1248;22528;-80
2023/04/12 04:28:01;;;;;;;15.20;8.40;;;;;;;;;;108278;1247;22635;-81
2023/04/12 04:30:27;;;;;;;;;;;;;;;;;;108115;1253;22683;-80
2023/04/12 04:32:54;;;;;;;18.60;10.30;;;;;;;;;;108112;1250;24181;-80
2023/04/12 04:35:20;;;;;;;15.30;9.00;;;;;;;;;;108095;1251;22531;-80
2023/04/12 04:37:47;;;;;;;23.40;12.30;;;;;;;;;;108141;1249;22540;-80
2023/04/12 04:40:14;;;;;;;26.20;12.20;;;;;;;;;;108108;1251;25483;-81
2023/04/12 04:42:41;;;;;;;53.40;25.30;;;;;;;;;;108079;1251;22810;-80
2023/04/12 04:45:14;;;;;;;110.60;51.10;;;;;;;;;;108057;1251;23361;-80
2023/04/12 04:47:41;;;;;;;56.50;29.90;;;;;;;;;;108039;1248;24513;-80
2023/04/12 04:50:07;;;;;;;44.60;24.80;;;;;;;;;;108194;1251;22524;-80
2023/04/12 04:52:33;;;;;;;40.10;22.10;;;;;;;;;;108171;1250;24187;-80
2023/04/12 04:55:00;;;;;;;20.80;11.10;;;;;;;;;;108149;1248;22942;-80
2023/04/12 04:57:26;;;;;;;18.90;11.60;;;;;;;;;;108018;1251;22584;-80
2023/04/12 04:59:52;;;;;;;18.20;13.90;;;;;;;;;;108049;1252;22521;-80
2023/04/12 05:02:20;;;;;;;16.60;12.20;;;;;;;;;;108121;1249;25482;-80
2023/04/12 05:04:46;;;;;;;18.20;9.90;;;;;;;;;;108295;1251;22514;-79
2023/04/12 05:07:13;;;;;;;16.00;10.90;;;;;;;;;;108102;1251;22521;-80
2023/04/12 05:09:40;;;;;;;10.00;7.20;;;;;;;;;;108107;1251;22529;-79
2023/04/12 05:12:06;;;;;;;14.10;8.30;;;;;;;;;;107641;1251;24187;-79
2023/04/12 05:14:32;;;;;;;13.80;8.20;;;;;;;;;;107587;1251;22548;-80
2023/04/12 05:16:59;;;;;;;11.30;7.80;;;;;;;;;;107631;1251;22546;-79
2023/04/12 05:19:25;;;;;;;14.90;8.90;;;;;;;;;;107652;1252;22519;-79
2023/04/12 05:21:51;;;;;;;15.80;8.20;;;;;;;;;;107628;1251;24263;-80
2023/04/12 05:24:17;;;;;;;12.80;8.80;;;;;;;;;;107602;1251;24242;-79
2023/04/12 05:26:44;;;;;;;21.60;11.50;;;;;;;;;;107630;1248;22514;-80
2023/04/12 05:29:10;;;;;;;21.60;12.00;;;;;;;;;;107587;1251;24205;-79
2023/04/12 05:31:37;;;;;;;23.40;12.20;;;;;;;;;;107731;1251;25278;-79
2023/04/12 05:34:03;;;;;;;14.60;9.90;;;;;;;;;;107655;1251;24243;-79
2023/04/12 05:36:30;;;;;;;17.90;9.90;;;;;;;;;;107620;1251;22538;-79
2023/04/12 05:38:57;;;;;;;13.50;8.40;;;;;;;;;;107608;1252;23649;-79
2023/04/12 05:41:23;;;;;;;13.20;9.10;;;;;;;;;;107655;1250;22541;-79
2023/04/12 05:43:49;;;;;;;17.00;10.30;;;;;;;;;;107610;1249;23035;-80
2023/04/12 05:46:16;;;;;;;32.20;15.40;;;;;;;;;;107606;1250;22649;-79
2023/04/12 05:48:42;;;;;;;15.30;8.90;;;;;;;;;;107530;1253;22642;-79
2023/04/12 05:51:08;;;;;;;12.20;7.80;;;;;;;;;;108465;1249;22530;-79
2023/04/12 05:53:35;;;;;;;18.20;9.80;;;;;;;;;;107910;1248;22550;-79
2023/04/12 05:56:02;;;;;;;12.90;9.70;;;;;;;;;;107829;1250;22532;-80
2023/04/12 05:58:28;;;;;;;14.70;9.60;;;;;;;;;;107698;1248;24192;-79
2023/04/12 06:00:55;;;;;;;13.40;8.90;;;;;;;;;;107972;1251;22593;-80
2023/04/12 06:03:22;;;;;;;17.60;11.30;;;;;;;;;;107941;1249;22681;-80
2023/04/12 06:05:49;;;;;;;19.20;9.20;;;;;;;;;;107810;1248;22757;-80
2023/04/12 06:08:15;;;;;;;19.90;9.80;;;;;;;;;;108149;1251;23234;-80
2023/04/12 06:10:41;;;;;;;17.60;11.10;;;;;;;;;;107829;1250;24458;-79
2023/04/12 06:13:08;;;;;;;16.00;11.00;;;;;;;;;;107968;1249;23011;-80
2023/04/12 06:15:35;;;;;;;22.90;13.10;;;;;;;;;;107925;1251;23007;-79
2023/04/12 06:18:01;;;;;;;20.20;12.10;;;;;;;;;;107792;1251;22523;-80
2023/04/12 06:20:27;;;;;;;15.30;8.90;;;;;;;;;;107703;1250;22979;-80
2023/04/12 06:22:54;;;;;;;13.80;9.10;;;;;;;;;;107814;1251;22570;-79
2023/04/12 06:25:21;;;;;;;11.70;8.50;;;;;;;;;;107851;1251;22687;-79
2023/04/12 06:27:48;;;;;;;11.60;8.30;;;;;;;;;;107733;1250;25335;-79
2023/04/12 06:30:14;;;;;;;17.10;8.60;;;;;;;;;;107801;1248;25388;-79
2023/04/12 06:32:41;;;;;;;12.90;7.70;;;;;;;;;;108038;1251;23389;-79
2023/04/12 06:35:07;;;;;;;15.00;8.80;;;;;;;;;;108020;1251;24241;-79
2023/04/12 06:37:34;;;;;;;17.00;10.30;;;;;;;;;;107842;1252;23409;-79
2023/04/12 06:40:00;;;;;;;24.60;11.10;;;;;;;;;;107823;1250;22639;-79
2023/04/12 06:42:26;;;;;;;18.70;11.40;;;;;;;;;;107949;1248;22549;-79
2023/04/12 06:44:53;;;;;;;23.00;11.60;;;;;;;;;;107817;1252;22560;-79
2023/04/12 06:47:21;;;;;;;18.80;12.50;;;;;;;;;;107769;1250;25480;-79
2023/04/12 06:49:47;;;;;;;16.10;9.00;;;;;;;;;;107720;1253;25325;-79
2023/04/12 06:52:14;;;;;;;16.40;9.20;;;;;;;;;;107883;1252;22536;-79
2023/04/12 06:54:41;;;;;;;21.00;10.40;;;;;;;;;;107740;1253;22528;-79
2023/04/12 06:57:08;;;;;;;18.20;9.30;;;;;;;;;;107933;1248;22482;-79
2023/04/12 06:59:34;;;;;;;21.10;12.00;;;;;;;;;;108151;1248;24080;-79
2023/04/12 07:02:01;;;;;;;15.70;9.40;;;;;;;;;;108217;1251;24786;-81
2023/04/12 07:04:27;;;;;;;13.00;7.80;;;;;;;;;;108243;1250;22695;-80
2023/04/12 07:06:53;;;;;;;10.20;7.00;;;;;;;;;;108058;1248;25496;-79
2023/04/12 07:09:20;;;;;;;11.20;8.30;;;;;;;;;;107956;1251;25458;-79
2023/04/12 07:11:47;;;;;;;14.10;9.40;;;;;;;;;;107991;1251;23396;-78
2023/04/12 07:14:13;;;;;;;13.00;6.60;;;;;;;;;;108681;1251;22527;-79
2023/04/12 07:16:41;;;;;;;9.30;6.40;;;;;;;;;;108071;1250;24228;-79
2023/04/12 07:19:07;;;;;;;17.50;10.10;;;;;;;;;;107902;1251;23169;-79
2023/04/12 07:21:33;;;;;;;34.80;12.90;;;;;;;;;;107761;1250;25265;-78
2023/04/12 07:24:00;;;;;;;24.40;14.10;;;;;;;;;;107797;1251;23029;-79
2023/04/12 07:26:27;;;;;;;14.50;9.30;;;;;;;;;;107868;1251;24107;-79
2023/04/12 07:28:53;;;;;;;23.40;14.00;;;;;;;;;;107681;1251;23267;-79
2023/04/12 07:31:20;;;;;;;17.60;10.80;;;;;;;;;;107776;1251;25300;-79
2023/04/12 07:33:46;;;;;;;21.10;11.80;;;;;;;;;;107903;1250;22980;-79
2023/04/12 07:36:15;;;;;;;12.00;7.60;;;;;;;;;;107749;1249;22543;-79
2023/04/12 07:38:41;;;;;;;14.30;8.40;;;;;;;;;;107892;1251;25282;-78
2023/04/12 07:41:08;;;;;;;8.40;6.50;;;;;;;;;;108122;1248;22530;-79
2023/04/12 07:43:34;;;;;;;13.90;8.20;;;;;;;;;;108191;1251;22525;-78
2023/04/12 07:46:06;;;;;;;12.40;6.00;;;;;;;;;;110651;1251;22492;-80
2023/04/12 07:48:32;;;;;;;8.40;6.40;;;;;;;;;;109121;1249;23241;-80
2023/04/12 07:50:59;;;;;;;24.30;7.90;;;;;;;;;;108383;1250;22547;-78
2023/04/12 07:53:26;;;;;;;10.80;6.70;;;;;;;;;;108415;1249;25292;-80
2023/04/12 07:55:53;;;;;;;9.60;6.10;;;;;;;;;;108082;1249;25272;-79
2023/04/12 07:58:20;;;;;;;13.80;8.40;;;;;;;;;;108072;1248;24069;-78
2023/04/12 08:00:47;;;;;;;12.40;7.60;;;;;;;;;;108928;1249;22772;-80
2023/04/12 08:03:13;;;;;;;10.40;6.70;;;;;;;;;;108198;1248;22513;-79
2023/04/12 08:05:40;;;;;;;12.00;8.20;;;;;;;;;;108913;1250;22478;-79
2023/04/12 08:08:08;;;;;;;10.80;6.70;;;;;;;;;;110230;1250;22524;-79
2023/04/12 08:10:36;;;;;;;14.80;7.30;;;;;;;;;;107860;1248;25367;-79
2023/04/12 08:13:02;;;;;;;11.80;6.70;;;;;;;;;;108165;1248;22533;-79
2023/04/12 08:15:29;;;;;;;10.00;6.70;;;;;;;;;;108387;1250;25283;-78
2023/04/12 08:17:55;;;;;;;8.80;5.80;;;;;;;;;;108195;1247;24022;-79
2023/04/12 08:20:21;;;;;;;17.00;7.10;;;;;;;;;;108056;1250;25357;-79
2023/04/12 08:22:48;;;;;;;11.50;6.90;;;;;;;;;;108085;1250;24186;-79
2023/04/12 08:25:15;;;;;;;10.20;5.40;;;;;;;;;;108197;1250;23932;-79
2023/04/12 08:27:41;;;;;;;10.60;6.00;;;;;;;;;;107894;1250;25217;-79
2023/04/12 08:30:08;;;;;;;10.60;5.70;;;;;;;;;;109091;1247;23296;-79
2023/04/12 08:32:36;;;;;;;11.50;6.10;;;;;;;;;;108230;1250;22536;-79
2023/04/12 08:35:03;;;;;;;13.70;9.10;;;;;;;;;;107904;1251;22551;-79
2023/04/12 08:37:29;;;;;;;21.30;8.20;;;;;;;;;;107837;1248;25316;-79
2023/04/12 08:39:58;;;;;;;10.10;6.20;;;;;;;;;;107934;1249;22680;-79
2023/04/12 08:42:24;;;;;;;18.50;11.50;;;;;;;;;;108336;1250;22526;-79
2023/04/12 08:44:52;;;;;;;12.80;7.20;;;;;;;;;;107898;1248;25300;-80
2023/04/12 08:47:18;;;;;;;13.50;7.20;;;;;;;;;;107755;1249;24127;-80
2023/04/12 08:49:45;;;;;;;47.00;24.50;;;;;;;;;;107963;1248;22518;-80
2023/04/12 08:52:12;;;;;;;23.10;12.60;;;;;;;;;;108256;1249;25400;-80
2023/04/12 08:54:38;;;;;;;7.50;6.30;;;;;;;;;;108637;1250;22515;-79
2023/04/12 08:57:05;;;;;;;10.50;7.50;;;;;;;;;;108357;1248;25340;-81
2023/04/12 08:59:34;;;;;;;10.70;7.20;;;;;;;;;;108400;1250;24727;-81
2023/04/12 09:02:00;;;;;;;9.90;5.20;;;;;;;;;;109039;1249;23737;-80
2023/04/12 09:04:28;;;;;;;9.60;5.00;;;;;;;;;;109052;1250;22135;-81
2023/04/12 09:06:55;;;;;;;7.80;5.10;;;;;;;;;;109120;1247;22529;-81
2023/04/12 09:09:39;;;;;;;17.80;7.60;;;;;;;;;;108786;1249;25374;-81
2023/04/12 09:12:06;;;;;;;9.60;7.10;;;;;;;;;;108785;1250;22567;-80
2023/04/12 09:14:32;;;;;;;15.60;7.10;;;;;;;;;;108916;1250;22622;-81
2023/04/12 09:16:59;;;;;;;17.40;11.40;;;;;;;;;;108911;1249;22533;-81
2023/04/12 09:19:29;;;;;;;17.20;9.50;;;;;;;;;;109103;1248;23994;-81
2023/04/12 09:21:56;;;;;;;8.60;4.80;;;;;;;;;;109043;1247;22549;-81
2023/04/12 09:24:25;;;;;;;7.80;4.70;;;;;;;;;;109093;1248;24338;-80
2023/04/12 09:27:02;;;;;;;8.80;4.00;;;;;;;;;;108611;1249;23932;-80
2023/04/12 09:29:29;;;;;;;6.20;4.00;;;;;;;;;;108814;1248;24350;-80
2023/04/12 09:32:05;;;;;;;6.10;4.20;;;;;;;;;;108798;1252;22563;-80
2023/04/12 09:34:32;;;;;;;7.30;4.40;;;;;;;;;;109291;1248;22556;-80
2023/04/12 09:36:58;;;;;;;10.30;5.10;;;;;;;;;;108938;1249;25294;-80
2023/04/12 09:39:31;;;;;;;20.90;11.60;;;;;;;;;;108912;1248;25324;-80
2023/04/12 09:42:05;;;;;;;25.30;7.90;;;;;;;;;;109279;1248;22547;-80
2023/04/12 09:44:33;;;;;;;26.90;9.50;;;;;;;;;;107932;1250;23776;-79
2023/04/12 09:47:01;;;;;;;72.50;60.00;;;;;;;;;;107924;1248;22537;-80
2023/04/12 09:49:38;;;;;;;13.70;10.20;;;;;;;;;;108556;1249;23160;-79
2023/04/12 09:52:06;;;;;;;34.30;12.00;;;;;;;;;;107964;1249;23020;-79
2023/04/12 09:54:35;;;;;;;32.70;14.70;;;;;;;;;;107722;1249;26597;-79
2023/04/12 09:57:03;;;;;;;22.50;11.20;;;;;;;;;;107804;1248;22593;-79
2023/04/12 09:59:29;;;;;;;11.50;4.80;;;;;;;;;;107835;1248;22528;-81
2023/04/12 10:01:56;;;;;;;16.70;6.40;;;;;;;;;;107775;1249;25313;-79
2023/04/12 10:04:23;;;;;;;5.20;3.10;;;;;;;;;;107607;1247;22527;-80
2023/04/12 10:06:50;;;;;;;9.00;3.80;;;;;;;;;;108260;1248;22617;-80
2023/04/12 10:09:17;;;;;;;10.90;5.10;;;;;;;;;;108209;1249;22538;-80
2023/04/12 10:11:43;;;;;;;90.60;43.80;;;;;;;;;;108239;1250;24214;-79
2023/04/12 10:14:10;;;;;;;49.00;21.40;;;;;;;;;;108447;1249;22639;-79
2023/04/12 10:16:37;;;;;;;10.50;5.40;;;;;;;;;;107750;1248;25269;-80
2023/04/12 10:19:03;;;;;;;5.70;3.00;;;;;;;;;;107719;1249;22605;-80
2023/04/12 10:21:30;;;;;;;7.80;3.40;;;;;;;;;;107760;1248;22624;-80
2023/04/12 10:23:56;;;;;;;13.70;4.00;;;;;;;;;;107845;1250;22543;-80
2023/04/12 10:26:23;;;;;;;22.60;10.60;;;;;;;;;;107721;1248;22659;-79
2023/04/12 10:29:08;;;;;;;16.80;13.90;;;;;;;;;;107851;1248;25600;-80
2023/04/12 10:31:34;;;;;;;15.90;10.30;;;;;;;;;;107730;1250;22679;-80
2023/04/12 10:34:01;;;;;;;9.20;4.60;;;;;;;;;;107934;1248;24183;-80
2023/04/12 10:36:46;;;;;;;24.60;16.10;;;;;;;;;;107735;1250;25386;-80
2023/04/12 10:39:14;;;;;;;11.50;7.40;;;;;;;;;;107604;1252;25333;-80
2023/04/12 10:41:55;;;;;;;24.80;13.10;;;;;;;;;;108167;1251;25301;-80
2023/04/12 10:44:22;;;;;;;24.80;13.40;;;;;;;;;;108360;1248;22635;-80
2023/04/12 10:46:49;;;;;;;17.90;7.40;;;;;;;;;;108106;1249;22581;-80
2023/04/12 10:49:16;;;;;;;8.80;6.60;;;;;;;;;;108397;1247;23347;-80
2023/04/12 10:52:01;;;;;;;6.70;4.70;;;;;;;;;;108185;1252;22546;-80
2023/04/12 10:54:28;;;;;;;4.90;2.70;;;;;;;;;;108248;1249;24144;-80
2023/04/12 10:56:56;;;;;;;4.20;3.10;;;;;;;;;;108230;1252;26470;-80
2023/04/12 10:59:22;;;;;;;5.40;2.90;;;;;;;;;;108226;1250;25221;-80
2023/04/12 11:02:08;;;;;;;4.00;2.40;;;;;;;;;;108385;1250;25382;-79
2023/04/12 11:04:35;;;;;;;4.40;2.40;;;;;;;;;;107548;1250;24294;-80
2023/04/12 11:07:06;;;;;;;4.20;2.80;;;;;;;;;;107703;1248;22537;-80
2023/04/12 11:09:33;;;;;;;7.50;2.90;;;;;;;;;;107878;1249;24465;-79
2023/04/12 11:12:02;;;;;;;6.40;3.10;;;;;;;;;;108245;1250;22522;-80
2023/04/12 11:14:33;;;;;;;2.70;2.00;;;;;;;;;;108313;1250;22657;-80
2023/04/12 11:17:05;;;;;;;3.00;2.10;;;;;;;;;;108256;1248;25370;-80
2023/04/12 11:19:32;;;;;;;5.10;2.30;;;;;;;;;;108216;1249;23084;-80
2023/04/12 11:22:06;;;;;;;4.00;2.30;;;;;;;;;;107563;1250;22532;-80
2023/04/12 11:24:32;;;;;;;5.20;3.10;;;;;;;;;;107655;1250;23808;-80
2023/04/12 11:26:59;;;;;;;4.90;2.90;;;;;;;;;;107648;1249;22619;-81
2023/04/12 11:29:26;;;;;;;3.00;2.20;;;;;;;;;;108031;1251;22560;-79
2023/04/12 11:31:54;;;;;;;2.60;1.90;;;;;;;;;;108125;1250;22557;-79
2023/04/12 11:34:21;;;;;;;8.60;3.90;;;;;;;;;;107735;1250;23360;-79
2023/04/12 11:36:49;;;;;;;16.30;9.00;;;;;;;;;;107646;1249;23265;-80
2023/04/12 11:39:15;;;;;;;5.90;3.40;;;;;;;;;;107728;1248;22495;-80
2023/04/12 11:41:45;;;;;;;5.40;3.70;;;;;;;;;;107934;1250;22570;-79
2023/04/12 11:44:12;;;;;;;16.10;5.90;;;;;;;;;;107850;1249;24391;-80
2023/04/12 11:46:38;;;;;;;5.60;2.90;;;;;;;;;;107768;1248;26154;-78
2023/04/12 11:49:05;;;;;;;4.20;2.60;;;;;;;;;;107755;1249;22518;-79
2023/04/12 11:51:32;;;;;;;3.20;2.20;;;;;;;;;;107819;1249;26071;-80
2023/04/12 11:53:58;;;;;;;4.90;3.40;;;;;;;;;;107748;1250;22717;-80
2023/04/12 11:56:26;;;;;;;5.90;3.70;;;;;;;;;;107790;1248;25381;-79
2023/04/12 11:58:52;;;;;;;9.90;3.90;;;;;;;;;;107860;1248;22525;-79
2023/04/12 12:01:19;;;;;;;5.00;2.90;;;;;;;;;;107995;1250;22613;-80
2023/04/12 12:03:45;;;;;;;4.20;2.40;;;;;;;;;;107911;1250;24254;-79
2023/04/12 12:06:12;;;;;;;4.10;2.70;;;;;;;;;;107842;1250;25485;-79
2023/04/12 12:08:39;;;;;;;6.30;2.10;;;;;;;;;;107889;1250;22645;-79
2023/04/12 12:11:05;;;;;;;3.80;1.90;;;;;;;;;;108963;1249;25377;-79
2023/04/12 12:13:47;;;;;;;2.70;1.90;;;;;;;;;;108841;1249;22622;-79
2023/04/12 12:16:14;;;;;;;4.00;2.50;;;;;;;;;;107842;1250;24229;-79
2023/04/12 12:18:41;;;;;;;3.00;2.20;;;;;;;;;;107747;1250;22685;-79
2023/04/12 12:21:08;;;;;;;3.30;2.10;;;;;;;;;;107816;1250;24389;-80
2023/04/12 12:23:35;;;;;;;3.30;2.10;;;;;;;;;;107807;1252;25210;-80
2023/04/12 12:26:02;;;;;;;4.00;2.60;;;;;;;;;;107762;1249;25318;-79
2023/04/12 12:28:29;;;;;;;5.00;2.70;;;;;;;;;;107810;1248;22620;-79
2023/04/12 12:30:56;;;;;;;4.40;1.80;;;;;;;;;;107628;1253;22471;-79
2023/04/12 12:33:23;;;;;;;4.00;2.90;;;;;;;;;;107813;1250;22635;-80
2023/04/12 12:35:56;;;;;;;3.30;2.00;;;;;;;;;;107752;1247;26472;-79
2023/04/12 12:38:22;;;;;;;3.80;2.80;;;;;;;;;;107897;1249;22527;-79
2023/04/12 12:40:49;;;;;;;3.70;2.10;;;;;;;;;;107656;1249;25390;-80
2023/04/12 12:43:22;;;;;;;3.80;2.20;;;;;;;;;;107754;1250;25496;-79
2023/04/12 12:45:48;;;;;;;5.30;2.70;;;;;;;;;;107751;1251;22527;-79
2023/04/12 12:48:15;;;;;;;2.60;1.80;;;;;;;;;;107747;1249;24404;-80
2023/04/12 12:50:41;;;;;;;4.10;2.50;;;;;;;;;;107781;1251;22654;-79
2023/04/12 12:53:09;;;;;;;6.10;2.60;;;;;;;;;;107745;1250;22528;-80
2023/04/12 12:55:36;;;;;;;3.90;2.20;;;;;;;;;;107793;1247;22692;-79
2023/04/12 12:58:02;;;;;;;3.90;1.90;;;;;;;;;;107715;1249;23320;-79
2023/04/12 13:00:28;;;;;;;5.70;2.70;;;;;;;;;;107737;1248;22716;-79
2023/04/12 13:02:55;;;;;;;4.20;2.10;;;;;;;;;;107748;1250;25309;-80
2023/04/12 13:05:22;;;;;;;4.60;2.30;;;;;;;;;;107673;1252;22531;-79
2023/04/12 13:07:48;;;;;;;7.10;3.50;;;;;;;;;;107644;1252;22994;-79
2023/04/12 13:10:14;;;;;;;7.50;2.90;;;;;;;;;;107735;1249;23021;-79
2023/04/12 13:12:41;;;;;;;3.70;2.60;;;;;;;;;;107841;1252;25995;-80
2023/04/12 13:15:08;;;;;;;3.90;2.50;;;;;;;;;;107804;1250;22527;-80
2023/04/12 13:17:34;;;;;;;4.30;2.60;;;;;;;;;;107910;1250;22640;-79
2023/04/12 13:20:01;;;;;;;4.00;2.80;;;;;;;;;;107904;1249;25484;-80
2023/04/12 13:22:27;;;;;;;6.50;2.40;;;;;;;;;;107861;1250;23282;-79
2023/04/12 13:24:54;;;;;;;3.40;2.10;;;;;;;;;;108000;1249;23903;-80
2023/04/12 13:27:21;;;;;;;4.30;2.70;;;;;;;;;;107808;1248;23738;-80
2023/04/12 13:29:47;;;;;;;2.50;2.20;;;;;;;;;;107791;1250;22523;-79
2023/04/12 13:32:14;;;;;;;3.70;2.10;;;;;;;;;;107685;1250;23854;-79
2023/04/12 13:34:40;;;;;;;2.80;2.00;;;;;;;;;;107752;1250;22569;-80
2023/04/12 13:37:07;;;;;;;3.20;1.80;;;;;;;;;;107845;1250;22550;-79
2023/04/12 13:39:34;;;;;;;6.30;2.50;;;;;;;;;;107855;1248;22552;-80
2023/04/12 13:42:01;;;;;;;4.10;3.00;;;;;;;;;;107855;1252;22528;-81
2023/04/12 13:44:27;;;;;;;2.90;1.90;;;;;;;;;;107870;1250;22618;-80
2023/04/12 13:46:54;;;;;;;9.80;2.00;;;;;;;;;;107707;1249;25323;-79
2023/04/12 13:49:20;;;;;;;5.20;2.30;;;;;;;;;;107836;1249;22513;-79
2023/04/12 13:51:47;;;;;;;4.70;2.00;;;;;;;;;;107907;1248;22521;-80
2023/04/12 13:54:14;;;;;;;3.80;2.00;;;;;;;;;;108043;1250;22633;-80
2023/04/12 13:56:41;;;;;;;7.40;1.90;;;;;;;;;;108026;1247;24363;-80
2023/04/12 13:59:07;;;;;;;4.30;1.60;;;;;;;;;;107839;1251;152040;-79
2023/04/12 14:01:34;;;;;;;6.40;4.90;;;;;;;;;;107849;1248;22521;-80
2023/04/12 14:04:00;;;;;;;5.70;4.20;;;;;;;;;;107810;1249;22559;-78
2023/04/12 14:06:28;;;;;;;3.60;2.70;;;;;;;;;;107786;1250;25493;-79
2023/04/12 14:08:54;;;;;;;9.70;3.40;;;;;;;;;;107625;1250;22781;-79
2023/04/12 14:11:23;;;;;;;15.40;11.20;;;;;;;;;;107695;1249;23488;-78
2023/04/12 14:13:50;;;;;;;3.90;2.50;;;;;;;;;;108299;1250;22563;-78
2023/04/12 14:16:16;;;;;;;6.70;4.00;;;;;;;;;;108371;1250;24201;-79
2023/04/12 14:18:43;;;;;;;10.00;5.90;;;;;;;;;;107812;1250;23272;-81
2023/04/12 14:21:10;;;;;;;4.40;3.10;;;;;;;;;;108220;1248;25275;-80